Terminal Aerodrome Forecast
Issued by NWS Louisville, KY

Home | Current Version | Previous Version | Text Only | Print | Product List | Glossary On
Versions: 1 2 3 4 5 6 7 8 9 10 11 12 13 14 15 16
000
FTUS43 KLMK 240537
TAFBWG
TAF
KBWG 240537Z 2406/2506 VRB04KT P6SM VCSH SCT011 BKN025
      TEMPO 2406/2409 BKN011
     FM240900 VRB03KT 4SM BR VCSH OVC008
     FM241700 31007KT P6SM OVC011 PROB30 2417/2423 4SM -SHRA OVC008
     FM250100 32008KT P6SM OVC008=

USA.gov is the U.S. government's official web portal to all federal, state and local government web resources and services.